createdAt,value
2024-02-29T00:01:27.524Z,6.50
2024-02-29T00:03:57.035Z,6.50
2024-02-29T00:06:25.450Z,6.50
2024-02-29T00:08:53.640Z,6.50
2024-02-29T00:11:22.394Z,6.50
2024-02-29T00:13:50.600Z,6.50
2024-02-29T00:16:19.701Z,6.50
2024-02-29T00:18:48.595Z,6.40
2024-02-29T00:21:18.369Z,6.40
2024-02-29T00:23:46.526Z,6.50
2024-02-29T00:26:16.693Z,6.50
2024-02-29T00:28:44.862Z,6.40
2024-02-29T00:31:13.210Z,6.40
2024-02-29T00:33:42.437Z,6.40
2024-02-29T00:36:10.823Z,6.40
2024-02-29T00:38:40.709Z,6.50
2024-02-29T00:41:09.412Z,6.40
2024-02-29T00:43:37.747Z,6.40
2024-02-29T00:46:06.337Z,6.40
2024-02-29T00:48:34.498Z,6.40
2024-02-29T00:51:03.211Z,6.40
2024-02-29T00:53:31.519Z,6.40
2024-02-29T00:56:01.038Z,6.40
2024-02-29T00:58:29.094Z,6.40
2024-02-29T01:00:57.524Z,6.40
2024-02-29T01:03:25.826Z,6.40
2024-02-29T01:05:53.924Z,6.40
2024-02-29T01:08:22.090Z,6.40
2024-02-29T01:10:50.385Z,6.40
2024-02-29T01:13:19.901Z,6.40
2024-02-29T01:15:50.301Z,6.40
2024-02-29T01:18:18.648Z,6.40
2024-02-29T01:20:46.758Z,6.40
2024-02-29T01:23:15.037Z,6.40
2024-02-29T01:25:43.440Z,6.40
2024-02-29T01:28:11.693Z,6.40
2024-02-29T01:30:41.288Z,6.40
2024-02-29T01:33:09.734Z,6.30
2024-02-29T01:35:38.998Z,6.40
2024-02-29T01:38:07.237Z,6.40
2024-02-29T01:40:35.537Z,6.40
2024-02-29T01:43:04.051Z,6.40
2024-02-29T01:45:32.340Z,6.30
2024-02-29T01:48:01.868Z,6.30
2024-02-29T01:50:30.904Z,6.30
2024-02-29T01:52:59.010Z,6.30
2024-02-29T01:55:27.212Z,6.40
2024-02-29T01:57:55.411Z,6.40
2024-02-29T02:00:23.824Z,6.30
2024-02-29T02:02:52.338Z,6.30
2024-02-29T02:05:22.131Z,6.30
2024-02-29T02:07:51.394Z,6.30
2024-02-29T02:10:19.592Z,6.30
2024-02-29T02:12:49.204Z,6.30
2024-02-29T02:15:17.766Z,6.30
2024-02-29T02:17:46.587Z,6.30
2024-02-29T02:20:19.106Z,6.30
2024-02-29T02:22:47.387Z,6.30
2024-02-29T02:25:15.504Z,6.30
2024-02-29T02:27:43.980Z,6.20
2024-02-29T02:30:13.041Z,6.20
2024-02-29T02:32:41.566Z,6.20
2024-02-29T02:35:10.402Z,6.20
2024-02-29T02:37:40.669Z,6.20
2024-02-29T02:40:09.686Z,6.30
2024-02-29T02:42:37.893Z,6.20
2024-02-29T02:45:06.845Z,6.20
2024-02-29T02:47:35.057Z,6.30
2024-02-29T02:50:03.318Z,6.30
2024-02-29T02:52:31.437Z,6.30
2024-02-29T02:55:01.021Z,6.20
2024-02-29T02:57:29.165Z,6.20
2024-02-29T02:59:57.356Z,6.20
2024-02-29T03:02:25.442Z,6.20
2024-02-29T03:04:53.721Z,6.20
2024-02-29T03:07:21.966Z,6.20
2024-02-29T03:09:50.095Z,6.20
2024-02-29T03:12:20.042Z,6.20
2024-02-29T03:14:48.176Z,6.20
2024-02-29T03:17:16.315Z,6.20
2024-02-29T03:19:44.405Z,6.20
2024-02-29T03:22:12.659Z,6.20
2024-02-29T03:24:43.538Z,6.20
2024-02-29T03:27:12.424Z,6.20
2024-02-29T03:29:42.215Z,6.20
2024-02-29T03:32:11.547Z,6.20
2024-02-29T03:34:40.226Z,6.20
2024-02-29T03:37:09.213Z,6.20
2024-02-29T03:39:37.793Z,6.20
2024-02-29T03:42:05.990Z,6.20
2024-02-29T03:44:34.555Z,6.20
2024-02-29T03:47:04.242Z,6.20
2024-02-29T03:49:32.403Z,6.20
2024-02-29T03:52:00.606Z,6.20
2024-02-29T03:54:29.314Z,6.20
2024-02-29T03:56:57.479Z,6.20
2024-02-29T03:59:26.083Z,6.20
2024-02-29T04:01:54.633Z,6.20
2024-02-29T04:04:24.365Z,6.20
2024-02-29T04:06:52.584Z,6.20
2024-02-29T04:09:20.713Z,6.10
2024-02-29T04:11:49.076Z,6.10
2024-02-29T04:14:17.388Z,6.10
2024-02-29T04:16:45.749Z,6.10
2024-02-29T04:19:14.069Z,6.10
2024-02-29T04:21:47.402Z,6.20
2024-02-29T04:24:16.055Z,6.20
2024-02-29T04:26:44.152Z,6.20
2024-02-29T04:29:12.217Z,6.20
2024-02-29T04:31:40.307Z,6.20
2024-02-29T04:34:08.400Z,6.20
2024-02-29T04:36:36.611Z,6.10
2024-02-29T04:39:06.052Z,6.10
2024-02-29T04:41:34.205Z,6.10
2024-02-29T04:44:02.340Z,6.10
2024-02-29T04:46:30.563Z,6.10
2024-02-29T04:48:58.739Z,6.10
2024-02-29T04:51:27.040Z,6.10
2024-02-29T04:53:55.167Z,6.10
2024-02-29T04:56:24.713Z,6.10
2024-02-29T04:58:52.853Z,6.10
2024-02-29T05:01:21.117Z,6.10
2024-02-29T05:03:49.366Z,6.10
2024-02-29T05:06:18.108Z,6.10
2024-02-29T05:08:46.239Z,6.10
2024-02-29T05:11:14.939Z,6.10
2024-02-29T05:13:44.681Z,6.10
2024-02-29T05:16:21.398Z,6.10
2024-02-29T05:18:49.808Z,6.10
2024-02-29T05:21:17.936Z,6.10
2024-02-29T05:23:46.063Z,6.10
2024-02-29T05:26:14.094Z,6.10
2024-02-29T05:28:42.257Z,6.10
2024-02-29T05:31:11.771Z,6.10
2024-02-29T05:33:42.734Z,6.10
2024-02-29T05:36:10.884Z,6.10
2024-02-29T05:38:38.950Z,6.10
2024-02-29T05:41:07.628Z,6.10
2024-02-29T05:43:36.665Z,6.10
2024-02-29T05:46:05.146Z,6.10
2024-02-29T05:48:36.762Z,6.10
2024-02-29T05:51:05.474Z,6.10
2024-02-29T05:53:33.623Z,6.10
2024-02-29T05:56:01.886Z,6.10
2024-02-29T05:58:32.193Z,6.10
2024-02-29T06:01:00.811Z,6.10
2024-02-29T06:03:28.985Z,6.10
2024-02-29T06:06:00.788Z,6.10
2024-02-29T06:08:29.901Z,6.10
2024-02-29T06:10:58.203Z,6.10
2024-02-29T06:13:26.525Z,6.10
2024-02-29T06:15:54.673Z,6.10
2024-02-29T06:18:22.779Z,6.10
2024-02-29T06:20:50.913Z,6.10
2024-02-29T06:23:20.568Z,6.10
2024-02-29T06:25:50.930Z,6.10
2024-02-29T06:28:23.947Z,6.10
2024-02-29T06:30:52.678Z,6.10
2024-02-29T06:33:20.966Z,6.10
2024-02-29T06:35:49.120Z,6.10
2024-02-29T06:38:18.162Z,6.10
2024-02-29T06:40:48.060Z,6.10
2024-02-29T06:43:16.738Z,6.10
2024-02-29T06:45:48.943Z,6.10
2024-02-29T06:48:18.669Z,6.10
2024-02-29T06:50:47.226Z,6.10
2024-02-29T06:53:15.566Z,6.20
2024-02-29T06:55:43.743Z,6.20
2024-02-29T06:58:13.262Z,6.20
2024-02-29T07:00:41.802Z,6.20
2024-02-29T07:03:10.605Z,6.20
2024-02-29T07:05:38.972Z,6.20
2024-02-29T07:08:07.670Z,6.20
2024-02-29T07:10:35.767Z,6.20
2024-02-29T07:13:03.974Z,6.30
2024-02-29T07:15:33.984Z,6.30
2024-02-29T07:18:02.651Z,6.30
2024-02-29T07:20:30.797Z,6.30
2024-02-29T07:22:58.894Z,6.40
2024-02-29T07:25:28.840Z,6.40
2024-02-29T07:27:58.535Z,6.40
2024-02-29T07:30:28.180Z,6.40
2024-02-29T07:32:59.081Z,6.40
2024-02-29T07:35:27.343Z,6.50
2024-02-29T07:37:55.759Z,6.50
2024-02-29T07:40:24.034Z,6.50
2024-02-29T07:42:52.215Z,6.60
2024-02-29T07:45:21.385Z,6.60
2024-02-29T07:47:50.298Z,6.70
2024-02-29T07:50:20.649Z,6.70
2024-02-29T07:52:49.563Z,6.70
2024-02-29T07:55:18.279Z,6.70
2024-02-29T07:57:47.814Z,6.80
2024-02-29T08:00:16.777Z,6.80
2024-02-29T08:02:47.519Z,6.80
2024-02-29T08:05:16.145Z,6.80
2024-02-29T08:07:47.846Z,6.90
2024-02-29T08:10:18.036Z,6.90
2024-02-29T08:12:46.627Z,6.90
2024-02-29T08:15:16.059Z,7.00
2024-02-29T08:17:44.222Z,7.00
2024-02-29T08:20:12.872Z,7.00
2024-02-29T08:22:41.060Z,7.10
2024-02-29T08:25:11.207Z,7.10
2024-02-29T08:27:39.407Z,7.20
2024-02-29T08:30:08.838Z,7.20
2024-02-29T08:32:36.970Z,7.20
2024-02-29T08:35:05.729Z,7.30
2024-02-29T08:37:33.767Z,7.30
2024-02-29T08:40:03.157Z,7.30
2024-02-29T08:42:32.897Z,7.40
2024-02-29T08:45:01.141Z,7.40
2024-02-29T08:47:29.447Z,7.50
2024-02-29T08:49:57.617Z,7.50
2024-02-29T08:52:27.335Z,7.60
2024-02-29T08:54:55.503Z,7.60
2024-02-29T08:57:23.829Z,7.70
2024-02-29T08:59:53.274Z,7.80
2024-02-29T09:02:21.417Z,7.80
2024-02-29T09:04:49.739Z,7.90
2024-02-29T09:07:17.923Z,8.00
2024-02-29T09:09:46.134Z,8.00
2024-02-29T09:12:16.034Z,8.10
2024-02-29T09:14:44.099Z,8.20
2024-02-29T09:17:13.712Z,8.20
2024-02-29T09:19:41.908Z,8.30
2024-02-29T09:22:10.084Z,8.40
2024-02-29T09:24:38.279Z,8.50
2024-02-29T09:27:06.719Z,8.60
2024-02-29T09:29:35.054Z,8.70
2024-02-29T09:32:04.702Z,8.80
2024-02-29T09:34:38.400Z,8.80
2024-02-29T09:37:08.011Z,8.90
2024-02-29T09:39:36.242Z,9.00
2024-02-29T09:44:36.322Z,9.10
2024-02-29T09:47:05.184Z,9.20
2024-02-29T09:49:34.695Z,9.30
2024-02-29T09:52:03.208Z,9.40
2024-02-29T09:54:35.872Z,9.40
2024-02-29T09:57:04.383Z,9.40
2024-02-29T09:59:33.768Z,9.40
2024-02-29T10:02:02.582Z,9.50
2024-02-29T10:04:30.981Z,9.50
2024-02-29T10:07:00.866Z,9.60
2024-02-29T10:09:31.461Z,9.70
2024-02-29T10:12:01.045Z,9.80
2024-02-29T10:14:31.628Z,9.80
2024-02-29T10:16:59.943Z,9.80
2024-02-29T10:19:28.154Z,9.90
2024-02-29T10:21:57.518Z,10.00
2024-02-29T10:24:27.088Z,10.00
2024-02-29T10:27:02.346Z,10.10
2024-02-29T10:29:31.542Z,10.20
2024-02-29T10:32:00.713Z,10.30
2024-02-29T10:34:28.875Z,10.30
2024-02-29T10:36:57.177Z,10.40
2024-02-29T10:39:27.394Z,10.40
2024-02-29T10:41:59.674Z,10.40
2024-02-29T10:44:32.803Z,10.60
2024-02-29T10:47:05.037Z,10.60
2024-02-29T10:49:37.380Z,10.70
2024-02-29T10:52:10.491Z,10.80
2024-02-29T10:54:48.378Z,10.70
2024-02-29T10:57:17.441Z,10.80
2024-02-29T10:59:53.681Z,10.70
2024-02-29T11:02:22.720Z,10.80
2024-02-29T11:04:50.925Z,10.80
2024-02-29T11:07:20.279Z,10.90
2024-02-29T11:09:50.159Z,10.90
2024-02-29T11:12:19.221Z,11.00
2024-02-29T11:14:49.938Z,11.00
2024-02-29T11:17:18.303Z,11.00
2024-02-29T11:19:51.986Z,11.10
2024-02-29T11:22:33.941Z,11.20
2024-02-29T11:25:10.168Z,11.30
2024-02-29T11:27:38.558Z,11.30
2024-02-29T11:30:08.302Z,11.30
2024-02-29T11:32:36.528Z,11.40
2024-02-29T11:35:05.426Z,11.40
2024-02-29T11:37:36.426Z,11.40
2024-02-29T11:40:08.457Z,11.50
2024-02-29T11:42:38.850Z,11.50
2024-02-29T11:45:08.390Z,11.60
2024-02-29T11:47:36.944Z,11.70
2024-02-29T11:50:07.263Z,11.70
2024-02-29T11:52:35.434Z,11.80
2024-02-29T11:55:05.646Z,11.90
2024-02-29T11:57:34.753Z,12.00
2024-02-29T12:00:02.916Z,12.00
2024-02-29T12:02:33.291Z,12.00
2024-02-29T12:05:01.409Z,12.10
2024-02-29T12:07:29.860Z,12.10
2024-02-29T12:10:08.577Z,12.20
2024-02-29T12:12:45.964Z,12.30
2024-02-29T17:27:59.442Z,9.80
2024-02-29T17:30:27.672Z,9.70
2024-02-29T17:32:55.749Z,9.60
2024-02-29T17:35:23.990Z,9.60
2024-02-29T17:37:52.100Z,9.50
2024-02-29T17:40:20.444Z,9.40
2024-02-29T17:42:48.583Z,9.40
2024-02-29T17:45:18.223Z,9.30
2024-02-29T17:47:46.825Z,9.30
2024-02-29T17:50:17.628Z,9.20
2024-02-29T17:52:45.957Z,9.20
2024-02-29T17:55:16.664Z,9.10
2024-02-29T17:57:44.850Z,9.10
2024-02-29T18:00:15.286Z,9.00
2024-02-29T18:02:44.857Z,8.90
2024-02-29T18:05:14.888Z,8.90
2024-02-29T18:07:50.557Z,8.80
2024-02-29T18:10:23.875Z,8.80
2024-02-29T18:12:52.290Z,8.70
2024-02-29T18:15:20.399Z,8.60
2024-02-29T18:17:50.317Z,8.50
2024-02-29T18:20:18.893Z,8.50
2024-02-29T18:22:47.172Z,8.40
2024-02-29T18:25:15.324Z,8.30
2024-02-29T18:27:43.734Z,8.20
2024-02-29T18:30:13.232Z,8.20
2024-02-29T18:32:41.488Z,8.10
2024-02-29T18:35:11.571Z,8.10
2024-02-29T18:37:41.173Z,8.00
2024-02-29T18:40:12.223Z,8.00
2024-02-29T18:42:40.622Z,8.00
2024-02-29T18:45:09.752Z,7.90
2024-02-29T18:47:38.037Z,7.90
2024-02-29T18:50:07.657Z,7.80
2024-02-29T18:52:37.219Z,7.80
2024-02-29T18:55:08.856Z,7.70
2024-02-29T18:57:37.373Z,7.70
2024-02-29T19:00:07.479Z,7.60
2024-02-29T19:02:35.649Z,7.60
2024-02-29T19:05:03.887Z,7.50
2024-02-29T19:07:32.227Z,7.50
2024-02-29T19:10:01.780Z,7.40
2024-02-29T19:12:29.963Z,7.30
2024-02-29T19:14:58.472Z,7.30
2024-02-29T19:17:26.586Z,7.20
2024-02-29T19:19:55.558Z,7.10
2024-02-29T19:22:23.840Z,7.10
2024-02-29T19:24:52.151Z,7.00
2024-02-29T19:27:23.366Z,7.00
2024-02-29T19:29:53.512Z,6.90
2024-02-29T19:32:21.922Z,6.90
2024-02-29T19:34:50.840Z,6.90
2024-02-29T19:37:19.085Z,6.80
2024-02-29T19:39:48.192Z,6.80
2024-02-29T19:42:16.608Z,6.80
2024-02-29T19:44:46.094Z,6.70
2024-02-29T19:47:14.556Z,6.70
2024-02-29T19:49:42.665Z,6.70
2024-02-29T19:52:11.151Z,6.60
2024-02-29T19:54:40.011Z,6.60
2024-02-29T19:57:08.205Z,6.50
2024-02-29T19:59:36.372Z,6.50
2024-02-29T20:02:06.363Z,6.40
2024-02-29T20:04:34.581Z,6.40
2024-02-29T20:07:02.754Z,6.30
2024-02-29T20:09:30.916Z,6.30
2024-02-29T20:11:59.060Z,6.20
2024-02-29T20:14:27.279Z,6.10
2024-02-29T20:16:55.342Z,6.10
2024-02-29T20:19:24.794Z,6.00
2024-02-29T20:21:53.013Z,6.00
2024-02-29T20:24:21.196Z,6.00
2024-02-29T20:26:49.295Z,5.90
2024-02-29T20:29:17.429Z,5.90
2024-02-29T20:31:45.568Z,5.90
2024-02-29T20:34:14.204Z,5.80
2024-02-29T20:36:44.836Z,5.80
2024-02-29T20:39:13.813Z,5.80
2024-02-29T20:41:42.130Z,5.80
2024-02-29T20:44:10.585Z,5.80
2024-02-29T20:46:39.183Z,5.80
2024-02-29T20:49:07.449Z,5.80
2024-02-29T20:51:35.555Z,5.70
2024-02-29T20:54:05.187Z,5.70
2024-02-29T20:56:33.769Z,5.70
2024-02-29T20:59:03.122Z,5.70
2024-02-29T21:01:31.440Z,5.70
2024-02-29T21:03:59.802Z,5.70
2024-02-29T21:06:28.110Z,5.60
2024-02-29T21:08:56.201Z,5.60
2024-02-29T21:11:25.807Z,5.60
2024-02-29T21:13:55.535Z,5.60
2024-02-29T21:16:24.039Z,5.50
2024-02-29T21:18:52.303Z,5.50
2024-02-29T21:21:20.606Z,5.50
2024-02-29T21:23:48.918Z,5.50
2024-02-29T21:26:18.392Z,5.40
2024-02-29T21:28:49.552Z,5.30
2024-02-29T21:31:18.000Z,5.30
2024-02-29T21:33:46.179Z,5.20
2024-02-29T21:36:15.237Z,5.20
2024-02-29T21:38:44.561Z,5.20
2024-02-29T21:41:12.824Z,5.20
2024-02-29T21:43:41.170Z,5.10
2024-02-29T21:46:13.654Z,5.10
2024-02-29T21:48:41.777Z,5.10
2024-02-29T21:51:10.146Z,5.00
2024-02-29T21:53:38.321Z,5.00
2024-02-29T21:56:12.806Z,4.90
2024-02-29T21:58:40.970Z,4.90
2024-02-29T22:01:12.124Z,4.90
2024-02-29T22:03:40.612Z,4.90
2024-02-29T22:06:09.296Z,4.80
2024-02-29T22:08:37.549Z,4.80
2024-02-29T22:11:06.119Z,4.70
2024-02-29T22:13:34.707Z,4.70
2024-02-29T22:16:03.582Z,4.60
2024-02-29T22:18:33.153Z,4.60
2024-02-29T22:21:01.383Z,4.50
2024-02-29T22:23:30.501Z,4.50
2024-02-29T22:25:58.816Z,4.40
2024-02-29T22:28:27.013Z,4.40
2024-02-29T22:30:55.153Z,4.40
2024-02-29T22:33:23.435Z,4.30
2024-02-29T22:35:52.952Z,4.30
2024-02-29T22:38:21.037Z,4.20
2024-02-29T22:40:49.191Z,4.20
2024-02-29T22:43:18.258Z,4.20
2024-02-29T22:45:46.461Z,4.20
2024-02-29T22:48:14.988Z,4.10
2024-02-29T22:50:43.165Z,4.00
2024-02-29T22:53:13.006Z,4.00
2024-02-29T22:55:41.295Z,4.00
2024-02-29T22:58:09.464Z,3.90
2024-02-29T23:00:37.839Z,3.90
2024-02-29T23:03:06.466Z,3.80
2024-02-29T23:05:34.741Z,3.80
2024-02-29T23:08:03.038Z,3.80
2024-02-29T23:10:32.599Z,3.80
2024-02-29T23:13:00.792Z,3.70
2024-02-29T23:15:29.525Z,3.70
2024-02-29T23:17:57.602Z,3.70
2024-02-29T23:20:25.789Z,3.70
2024-02-29T23:22:54.242Z,3.60
2024-02-29T23:25:25.054Z,3.60
2024-02-29T23:27:55.218Z,3.70
2024-02-29T23:30:23.714Z,3.70
2024-02-29T23:32:52.024Z,3.70
2024-02-29T23:35:20.467Z,3.70
2024-02-29T23:37:48.716Z,3.70
2024-02-29T23:40:17.021Z,3.70
2024-02-29T23:42:45.787Z,3.60
2024-02-29T23:45:16.429Z,3.60
2024-02-29T23:47:45.825Z,3.60
2024-02-29T23:50:13.989Z,3.60
2024-02-29T23:52:42.187Z,3.60
2024-02-29T23:55:11.060Z,3.50
2024-02-29T23:57:39.265Z,3.50
